Time;durP1;ratioP1;P1;durP2;ratioP2;P2;SDS_P1;SDS_P2;PMS_P1;PMS_P2;Temp;Humidity;BMP_temperature;BMP_pressure;BME280_temperature;BME280_humidity;BME280_pressure;Samples;Min_cycle;Max_cycle;Signal;HPM_P1;HPM_P2
2023/07/22 00:01:54;;;;;;;3.40;3.20;;;13.00;99.90;;;;;;6017635;23;20023;-93
2023/07/22 00:04:28;;;;;;;3.30;3.10;;;13.00;99.90;;;;;;6017571;23;20058;-92
2023/07/22 00:06:54;;;;;;;3.00;2.80;;;12.90;99.90;;;;;;6016581;23;20033;-92
2023/07/22 00:09:20;;;;;;;3.13;2.92;;;13.00;99.90;;;;;;6016314;23;20089;-92
2023/07/22 00:11:46;;;;;;;2.70;2.55;;;12.90;99.90;;;;;;6017897;23;20030;-92
2023/07/22 00:14:12;;;;;;;2.78;2.60;;;13.00;99.90;;;;;;6017085;23;20023;-92
2023/07/22 00:16:41;;;;;;;3.00;2.80;;;13.00;99.90;;;;;;6017804;23;20077;-92
2023/07/22 00:19:10;;;;;;;2.90;2.70;;;12.90;99.90;;;;;;6017037;23;20065;-92
2023/07/22 00:21:38;;;;;;;2.60;2.50;;;13.00;99.90;;;;;;6017255;23;20023;-90
2023/07/22 00:24:04;;;;;;;2.58;2.47;;;13.00;99.90;;;;;;6016861;23;20034;-93
2023/07/22 00:26:30;;;;;;;2.53;2.42;;;13.00;99.90;;;;;;6039748;23;20050;-92
2023/07/22 00:29:01;;;;;;;2.47;2.38;;;13.10;99.90;;;;;;6016345;23;20094;-92
2023/07/22 00:31:27;;;;;;;2.55;2.45;;;13.00;99.90;;;;;;6017112;23;20038;-93
2023/07/22 00:33:53;;;;;;;2.45;2.35;;;13.00;99.90;;;;;;6016598;23;20019;-92
2023/07/22 00:36:19;;;;;;;2.35;2.25;;;13.00;99.90;;;;;;6017125;23;20022;-92
2023/07/22 00:38:53;;;;;;;2.33;2.22;;;12.90;99.90;;;;;;6017632;23;20042;-92
2023/07/22 00:41:19;;;;;;;2.25;2.15;;;12.90;99.90;;;;;;6016369;23;20078;-91
2023/07/22 00:44:00;;;;;;;2.20;2.10;;;12.70;99.90;;;;;;6040423;23;20019;-95
2023/07/22 00:46:49;;;;;;;2.25;2.15;;;12.60;99.90;;;;;;6017586;23;20018;-94
2023/07/22 00:49:16;;;;;;;2.10;2.00;;;12.70;99.90;;;;;;6040540;23;20057;-93
2023/07/22 00:51:41;;;;;;;2.13;2.03;;;12.60;99.90;;;;;;6041227;23;20078;-91
2023/07/22 00:54:08;;;;;;;2.10;2.00;;;12.70;99.90;;;;;;6016482;23;20698;-92
2023/07/22 00:56:36;;;;;;;2.72;2.58;;;12.70;99.90;;;;;;6017462;23;20026;-92
2023/07/22 00:59:02;;;;;;;3.50;3.30;;;12.80;99.90;;;;;;6040900;23;20019;-92
2023/07/22 01:01:33;;;;;;;3.78;3.58;;;12.80;99.90;;;;;;6016733;23;20023;-93
2023/07/22 01:04:01;;;;;;;3.75;3.55;;;12.80;99.90;;;;;;6017094;23;20026;-93
2023/07/22 01:07:16;;;;;;;3.70;3.50;;;12.90;99.90;;;;;;6017547;23;20023;-95
2023/07/22 01:09:45;;;;;;;3.65;3.45;;;12.80;99.90;;;;;;5961932;23;20020;-94
2023/07/22 01:15:32;;;;;;;3.13;2.92;;;12.60;99.90;;;;;;6039972;23;20030;-93
2023/07/22 01:18:09;;;;;;;3.03;2.83;;;12.40;99.90;;;;;;6040964;23;20018;-93
2023/07/22 01:20:44;;;;;;;3.10;2.90;;;12.60;99.90;;;;;;6017860;23;20030;-92
2023/07/22 01:23:11;;;;;;;3.13;2.92;;;12.50;99.90;;;;;;6040745;23;20026;-92
2023/07/22 01:25:44;;;;;;;3.05;2.85;;;12.50;99.90;;;;;;6017750;23;20101;-91
2023/07/22 01:28:13;;;;;;;3.00;2.80;;;12.50;99.90;;;;;;6040412;23;20030;-94
2023/07/22 01:38:15;;;;;;;3.13;2.92;;;12.50;99.90;;;;;;6066473;23;20058;-96
2023/07/22 01:41:14;;;;;;;3.20;3.00;;;12.20;99.90;;;;;;6045231;23;20022;-92
2023/07/22 01:43:53;;;;;;;3.38;3.17;;;12.30;99.90;;;;;;6041805;23;20023;-92
2023/07/22 01:46:24;;;;;;;3.30;3.10;;;12.40;99.90;;;;;;6017181;23;20146;-93
2023/07/22 01:48:49;;;;;;;3.05;2.85;;;12.40;99.90;;;;;;6017453;23;20023;-92
2023/07/22 01:51:16;;;;;;;3.20;3.00;;;12.40;99.90;;;;;;6014024;23;20023;-93
2023/07/22 01:54:16;;;;;;;3.00;2.80;;;12.40;99.90;;;;;;6014594;23;20071;-94
2023/07/22 02:03:32;;;;;;;;;;;12.30;99.90;;;;;;5922213;24;20036;-90
2023/07/22 02:09:35;;;;;;;2.72;2.53;;;12.40;99.90;;;;;;6061211;23;20493;-96
2023/07/22 02:12:12;;;;;;;2.60;2.50;;;12.40;99.90;;;;;;6019493;23;20023;-94
2023/07/22 02:15:12;;;;;;;2.80;2.60;;;12.50;99.90;;;;;;6019037;23;20078;-96
2023/07/22 02:17:47;;;;;;;2.90;2.70;;;12.40;99.90;;;;;;6017385;23;20026;-93
2023/07/22 02:20:42;;;;;;;2.90;2.70;;;12.40;99.90;;;;;;6019117;23;20023;-94
2023/07/22 02:23:55;;;;;;;;;;;;;;;;;;;;;
2023/07/22 02:27:10;;;;;;;;;;;;;;;;;;;;;
2023/07/22 02:29:39;;;;;;;2.90;2.70;;;12.50;99.90;;;;;;5984945;23;20368;-92
2023/07/22 02:32:05;;;;;;;2.50;2.40;;;12.40;99.90;;;;;;5960809;23;20548;-93
2023/07/22 02:34:55;;;;;;;2.50;2.40;;;12.50;99.90;;;;;;5960475;23;20024;-92
2023/07/22 02:37:23;;;;;;;2.50;2.40;;;12.40;99.90;;;;;;5984709;23;20079;-93
2023/07/22 02:40:08;;;;;;;2.53;2.42;;;12.50;99.90;;;;;;6003674;23;20101;-94
2023/07/22 02:42:40;;;;;;;2.50;2.40;;;12.50;99.90;;;;;;6018463;23;20490;-94
2023/07/22 02:49:07;;;;;;;2.50;2.40;;;12.50;99.90;;;;;;6029296;23;20070;-93
2023/07/22 02:51:58;;;;;;;2.50;2.40;;;12.50;99.90;;;;;;6019394;23;20023;-95
2023/07/22 02:54:27;;;;;;;2.75;2.58;;;12.50;99.90;;;;;;6018103;23;20023;-92
2023/07/22 02:57:04;;;;;;;2.50;2.40;;;12.50;99.90;;;;;;6020073;23;20019;-94
2023/07/22 03:03:04;;;;;;;2.50;2.40;;;12.60;99.90;;;;;;5985743;23;20352;-94
2023/07/22 03:05:34;;;;;;;2.50;2.40;;;12.60;99.90;;;;;;6017670;23;20105;-95
2023/07/22 03:15:39;;;;;;;2.33;2.22;;;12.80;99.90;;;;;;6036518;23;20169;-96
2023/07/22 03:18:15;;;;;;;2.40;2.30;;;12.80;99.90;;;;;;5981547;23;20016;-94
2023/07/22 03:20:51;;;;;;;2.50;2.40;;;12.80;99.90;;;;;;5988786;23;20016;-94
2023/07/22 03:23:23;;;;;;;2.30;2.20;;;12.80;99.90;;;;;;5988904;23;20155;-94
2023/07/22 03:25:57;;;;;;;1.92;1.83;;;12.80;99.90;;;;;;5989380;23;20408;-93
2023/07/22 03:32:27;;;;;;;1.80;1.70;;;12.80;99.90;;;;;;6018094;23;20022;-93
2023/07/22 03:38:24;;;;;;;1.80;1.70;;;12.80;99.90;;;;;;5928219;24;20033;-93
2023/07/22 03:40:56;;;;;;;1.90;1.80;;;12.90;99.90;;;;;;5904793;24;20021;-92
2023/07/22 03:43:30;;;;;;;1.80;1.70;;;12.90;99.90;;;;;;5998922;23;20019;-93
2023/07/22 03:46:34;;;;;;;1.77;1.67;;;12.90;99.90;;;;;;6017883;23;20031;-93
2023/07/22 03:49:29;;;;;;;1.80;1.70;;;13.00;99.90;;;;;;5970535;23;20462;-94
2023/07/22 03:51:55;;;;;;;1.80;1.70;;;13.00;99.90;;;;;;6019460;23;20022;-93
2023/07/22 03:54:27;;;;;;;1.75;1.65;;;13.10;99.90;;;;;;6018009;23;20553;-93
2023/07/22 03:56:58;;;;;;;1.75;1.65;;;13.10;99.90;;;;;;6016522;23;20019;-93
2023/07/22 03:59:37;;;;;;;1.73;1.63;;;13.10;99.90;;;;;;6015802;23;20051;-92
2023/07/22 04:02:24;;;;;;;1.73;1.63;;;13.20;99.90;;;;;;6012887;23;20023;-93
2023/07/22 04:05:31;;;;;;;1.70;1.60;;;13.10;99.90;;;;;;6043517;23;20030;-91
2023/07/22 04:08:00;;;;;;;1.75;1.65;;;13.20;99.90;;;;;;6016652;23;20646;-89
2023/07/22 04:10:32;;;;;;;1.63;1.52;;;13.30;99.90;;;;;;6038027;23;20033;-90
2023/07/22 04:13:04;;;;;;;1.60;1.50;;;13.20;99.90;;;;;;6015411;23;20057;-91
2023/07/22 04:16:29;;;;;;;1.63;1.52;;;13.20;99.90;;;;;;6013716;23;20467;-93
2023/07/22 04:18:57;;;;;;;1.67;1.58;;;13.30;99.90;;;;;;6039653;23;20136;-90
2023/07/22 04:21:29;;;;;;;1.52;1.42;;;13.20;99.90;;;;;;6036080;23;20046;-91
2023/07/22 04:24:07;;;;;;;1.52;1.42;;;13.20;99.90;;;;;;6016304;23;20026;-92
2023/07/22 04:26:45;;;;;;;1.60;1.50;;;13.30;99.90;;;;;;6015489;23;20015;-90
2023/07/22 04:29:13;;;;;;;1.52;1.42;;;13.30;99.90;;;;;;6013121;23;20022;-91
2023/07/22 04:31:45;;;;;;;1.52;1.42;;;13.30;99.90;;;;;;6037514;23;20019;-88
2023/07/22 04:34:14;;;;;;;1.50;1.40;;;13.30;99.90;;;;;;6010273;23;20435;-91
2023/07/22 04:37:33;;;;;;;1.40;1.30;;;13.40;99.90;;;;;;5999417;23;20394;-88
2023/07/22 04:40:06;;;;;;;1.60;1.50;;;13.40;99.90;;;;;;6034422;23;20019;-91
2023/07/22 04:42:51;;;;;;;1.55;1.45;;;13.30;99.90;;;;;;6013440;23;20029;-92
2023/07/22 04:45:20;;;;;;;1.50;1.40;;;13.40;99.90;;;;;;6037232;23;20074;-89
2023/07/22 04:47:55;;;;;;;1.30;1.30;;;13.40;99.90;;;;;;6015776;23;20027;-91
2023/07/22 04:50:24;;;;;;;1.50;1.40;;;13.50;99.90;;;;;;6012019;23;20030;-88
2023/07/22 04:52:55;;;;;;;1.50;1.40;;;13.50;99.90;;;;;;6015917;23;20030;-93
2023/07/22 04:55:24;;;;;;;1.30;1.30;;;13.50;99.90;;;;;;6014054;23;20030;-89
2023/07/22 04:57:54;;;;;;;1.20;1.20;;;13.60;99.90;;;;;;6034824;23;20026;-92
2023/07/22 05:00:23;;;;;;;1.33;1.30;;;13.60;99.90;;;;;;6033002;23;20027;-87
2023/07/22 05:02:56;;;;;;;1.30;1.30;;;13.70;99.90;;;;;;6035760;23;20098;-91
2023/07/22 05:05:28;;;;;;;1.30;1.30;;;13.70;99.90;;;;;;6012936;23;20085;-89
2023/07/22 05:08:13;;;;;;;1.20;1.20;;;13.70;99.90;;;;;;6037755;23;20014;-90
2023/07/22 05:11:02;;;;;;;1.33;1.33;;;13.80;99.90;;;;;;6041629;23;20082;-93
2023/07/22 05:13:33;;;;;;;1.30;1.30;;;13.80;99.90;;;;;;6015649;23;20021;-90
2023/07/22 05:16:13;;;;;;;1.20;1.20;;;13.80;99.90;;;;;;6014967;23;20078;-91
2023/07/22 05:18:39;;;;;;;1.20;1.20;;;13.80;99.90;;;;;;6009538;23;20102;-88
2023/07/22 05:21:11;;;;;;;1.23;1.23;;;13.90;99.90;;;;;;6014232;23;20058;-89
2023/07/22 05:23:43;;;;;;;1.25;1.25;;;13.90;99.90;;;;;;6016464;23;20022;-91
2023/07/22 05:26:09;;;;;;;1.17;1.17;;;14.00;99.90;;;;;;6014677;23;20026;-91
2023/07/22 05:28:34;;;;;;;1.20;1.20;;;13.90;99.90;;;;;;6038654;23;20015;-87
2023/07/22 05:31:18;;;;;;;1.23;1.23;;;14.00;99.90;;;;;;6034806;23;20022;-91
2023/07/22 05:33:43;;;;;;;1.20;1.20;;;14.00;99.90;;;;;;6015701;23;20030;-91
2023/07/22 05:36:21;;;;;;;1.20;1.20;;;14.00;99.90;;;;;;6013091;23;20195;-90
2023/07/22 05:38:59;;;;;;;1.20;1.20;;;14.10;99.90;;;;;;6036979;23;20028;-89
2023/07/22 05:41:28;;;;;;;1.27;1.27;;;14.10;99.90;;;;;;6037330;23;20576;-89
2023/07/22 05:44:20;;;;;;;1.23;1.23;;;14.20;99.90;;;;;;6012245;23;20027;-87
2023/07/22 05:46:49;;;;;;;1.30;1.30;;;14.10;99.90;;;;;;6033021;23;20031;-92
2023/07/22 05:49:21;;;;;;;1.25;1.25;;;14.20;99.90;;;;;;6016538;23;20023;-94
2023/07/22 05:51:52;;;;;;;1.30;1.30;;;14.20;99.90;;;;;;6012052;23;20065;-87
2023/07/22 05:54:27;;;;;;;1.33;1.30;;;14.30;99.90;;;;;;6035466;23;20354;-88
2023/07/22 05:57:11;;;;;;;1.30;1.30;;;14.30;99.90;;;;;;6009605;23;20027;-87
2023/07/22 05:59:37;;;;;;;1.45;1.38;;;14.40;99.90;;;;;;6010157;23;20023;-90
2023/07/22 06:02:26;;;;;;;1.27;1.27;;;14.40;99.90;;;;;;6015256;23;20021;-92
2023/07/22 06:05:02;;;;;;;;;;;;;;;;;;;;;
2023/07/22 06:07:30;;;;;;;1.30;1.30;;;14.60;99.90;;;;;;6036857;23;20027;-88
2023/07/22 06:09:56;;;;;;;1.30;1.30;;;14.70;99.90;;;;;;6038756;23;20082;-90
2023/07/22 06:12:28;;;;;;;1.30;1.30;;;14.70;99.90;;;;;;6012192;23;20021;-91
2023/07/22 06:14:57;;;;;;;1.20;1.20;;;14.70;99.90;;;;;;6014797;23;20461;-88
2023/07/22 06:17:34;;;;;;;1.35;1.33;;;14.80;99.90;;;;;;6036815;23;20023;-92
2023/07/22 06:20:11;;;;;;;1.30;1.30;;;14.80;99.90;;;;;;6015396;23;20511;-94
2023/07/22 06:22:49;;;;;;;;;;;;;;;;;;;;;
2023/07/22 06:25:27;;;;;;;1.30;1.30;;;14.90;99.90;;;;;;6040745;23;20350;-90
2023/07/22 06:27:56;;;;;;;1.30;1.30;;;15.00;99.90;;;;;;6016055;23;20407;-90
2023/07/22 06:30:37;;;;;;;1.30;1.30;;;15.10;99.90;;;;;;6016020;23;20455;-91
2023/07/22 06:33:31;;;;;;;1.30;1.30;;;15.00;99.90;;;;;;6017368;23;20097;-93
2023/07/22 06:36:05;;;;;;;1.30;1.30;;;14.90;99.90;;;;;;6017945;23;20074;-90
2023/07/22 06:39:04;;;;;;;;;;;;;;;;;;;;;
2023/07/22 06:42:12;;;;;;;;;;;;;;;;;;;;;
2023/07/22 06:44:48;;;;;;;1.30;1.30;;;15.10;99.90;;;;;;6041347;23;20026;-95
2023/07/22 06:47:55;;;;;;;1.20;1.20;;;15.10;99.90;;;;;;6018351;23;20350;-94
2023/07/22 06:50:24;;;;;;;1.20;1.20;;;15.10;99.90;;;;;;6018070;23;20110;-94
2023/07/22 06:53:14;;;;;;;1.30;1.30;;;15.10;99.90;;;;;;6001447;23;20343;-94
2023/07/22 06:55:48;;;;;;;1.20;1.20;;;15.10;99.90;;;;;;6016924;23;20026;-93
2023/07/22 06:58:27;;;;;;;1.30;1.30;;;15.10;99.90;;;;;;6018063;23;20019;-93
2023/07/22 07:01:10;;;;;;;1.30;1.30;;;15.00;99.90;;;;;;6018599;23;20019;-91
2023/07/22 07:14:03;;;;;;;1.20;1.20;;;15.50;99.90;;;;;;5898320;24;20036;-94
2023/07/22 07:23:51;;;;;;;1.10;1.10;;;16.20;99.90;;;;;;5766414;24;20292;-90
2023/07/22 07:26:55;;;;;;;1.20;1.20;;;16.40;99.90;;;;;;5745706;24;20023;-95
2023/07/22 07:29:30;;;;;;;1.13;1.13;;;16.60;99.90;;;;;;5717952;24;20022;-89
2023/07/22 07:31:56;;;;;;;1.50;1.40;;;16.90;99.90;;;;;;5792318;24;20050;-89
2023/07/22 07:34:25;;;;;;;1.50;1.40;;;16.90;99.90;;;;;;5770279;24;20031;-92
2023/07/22 07:37:09;;;;;;;1.50;1.40;;;17.00;99.90;;;;;;5905173;24;20484;-94
2023/07/22 07:40:20;;;;;;;1.70;1.60;;;17.20;99.90;;;;;;5977012;24;20020;-94
2023/07/22 07:42:59;;;;;;;1.65;1.55;;;17.20;99.90;;;;;;6015760;23;20047;-91
2023/07/22 07:45:25;;;;;;;1.65;1.55;;;17.20;99.90;;;;;;6015741;23;20019;-92
2023/07/22 07:47:54;;;;;;;1.70;1.60;;;17.30;99.90;;;;;;6015520;23;20050;-88
2023/07/22 07:50:19;;;;;;;1.80;1.70;;;17.30;99.90;;;;;;6015718;23;20392;-89
2023/07/22 07:52:45;;;;;;;1.90;1.80;;;17.30;99.90;;;;;;6014457;23;20467;-90
2023/07/22 07:55:26;;;;;;;2.08;1.98;;;17.30;99.90;;;;;;6040561;23;20014;-92
2023/07/22 07:58:37;;;;;;;1.85;1.75;;;17.30;99.90;;;;;;6014230;23;20027;-94
2023/07/22 08:01:14;;;;;;;2.05;1.95;;;17.60;99.90;;;;;;6040866;23;20025;-94
2023/07/22 08:04:13;;;;;;;2.30;2.20;;;17.80;99.90;;;;;;6036731;23;20404;-95
2023/07/22 08:06:39;;;;;;;2.50;2.40;;;18.10;99.90;;;;;;6013495;23;20018;-91
2023/07/22 08:09:10;;;;;;;2.45;2.35;;;18.00;99.90;;;;;;6015240;23;20023;-89
2023/07/22 08:11:37;;;;;;;2.40;2.30;;;18.30;99.90;;;;;;6013824;23;20188;-90
2023/07/22 08:14:05;;;;;;;2.42;2.33;;;18.60;99.90;;;;;;6036993;23;20027;-85
2023/07/22 08:16:59;;;;;;;2.47;2.38;;;18.80;99.90;;;;;;6013133;23;20022;-95
2023/07/22 08:19:25;;;;;;;2.55;2.45;;;19.00;99.90;;;;;;6008729;23;20019;-90
2023/07/22 08:21:57;;;;;;;2.95;2.75;;;19.20;99.90;;;;;;6016247;23;20018;-96
2023/07/22 08:24:41;;;;;;;3.45;3.25;;;19.40;99.90;;;;;;6016253;23;20018;-93
2023/07/22 08:27:24;;;;;;;3.60;3.40;;;19.60;99.90;;;;;;6017708;23;20084;-95
2023/07/22 08:30:05;;;;;;;3.83;3.63;;;19.80;99.90;;;;;;6015084;23;20023;-93
2023/07/22 08:32:33;;;;;;;4.13;3.85;;;20.10;99.90;;;;;;6014272;23;20094;-90
2023/07/22 08:35:17;;;;;;;4.07;3.80;;;20.40;99.90;;;;;;6016088;23;20027;-92
2023/07/22 08:38:04;;;;;;;4.10;3.80;;;20.50;99.90;;;;;;6017356;23;20252;-93
2023/07/22 08:40:37;;;;;;;3.78;3.58;;;20.40;99.90;;;;;;6014896;23;20097;-92
2023/07/22 08:43:04;;;;;;;3.78;3.58;;;20.20;99.90;;;;;;6016522;23;20090;-91
2023/07/22 08:45:36;;;;;;;3.70;3.50;;;20.30;99.90;;;;;;6038311;23;20096;-89
2023/07/22 08:51:32;;;;;;;3.20;3.00;;;20.60;99.90;;;;;;6028594;23;20023;-88
2023/07/22 08:54:27;;;;;;;3.20;3.00;;;21.20;99.90;;;;;;6037690;23;20556;-92
2023/07/22 08:56:55;;;;;;;3.42;3.22;;;21.00;99.90;;;;;;6039706;23;20023;-87
2023/07/22 08:59:24;;;;;;;3.30;3.10;;;20.90;99.90;;;;;;6014360;23;20022;-93
2023/07/22 09:01:56;;;;;;;3.50;3.30;;;20.90;99.90;;;;;;6041761;23;20034;-90
2023/07/22 09:04:30;;;;;;;3.05;2.85;;;20.80;99.90;;;;;;6062124;23;20022;-95
2023/07/22 09:07:03;;;;;;;2.90;2.70;;;20.80;99.90;;;;;;6014698;23;20025;-92
2023/07/22 09:09:53;;;;;;;2.85;2.65;;;20.70;99.90;;;;;;6017846;23;20391;-94
2023/07/22 09:12:39;;;;;;;2.65;2.53;;;20.50;99.90;;;;;;6009223;23;20082;-89
2023/07/22 09:15:41;;;;;;;2.67;2.55;;;20.50;99.90;;;;;;6037462;23;20023;-92
2023/07/22 09:18:07;;;;;;;2.80;2.60;;;20.70;99.90;;;;;;6037868;23;20474;-86
2023/07/22 09:20:34;;;;;;;2.40;2.30;;;21.00;99.90;;;;;;6011342;23;20023;-88
2023/07/22 09:23:00;;;;;;;2.50;2.40;;;21.00;99.90;;;;;;6034490;23;20019;-84
2023/07/22 09:25:33;;;;;;;2.30;2.20;;;20.90;99.90;;;;;;6034062;23;20026;-88
2023/07/22 09:28:10;;;;;;;2.42;2.33;;;20.60;99.90;;;;;;6036202;23;20023;-89
2023/07/22 09:30:38;;;;;;;2.60;2.50;;;20.40;99.90;;;;;;6014764;23;20046;-89
2023/07/22 09:33:08;;;;;;;2.25;2.15;;;20.10;99.90;;;;;;6034480;23;20538;-87
2023/07/22 09:35:45;;;;;;;2.47;2.38;;;19.70;99.90;;;;;;6058698;23;20011;-93
2023/07/22 09:38:13;;;;;;;2.30;2.20;;;19.60;99.90;;;;;;6011903;23;20019;-90
2023/07/22 09:40:42;;;;;;;2.38;2.28;;;19.30;99.90;;;;;;6013691;23;20703;-91
2023/07/22 09:43:30;;;;;;;2.28;2.17;;;19.20;99.90;;;;;;6014823;23;20037;-88
2023/07/22 09:46:12;;;;;;;2.15;2.05;;;19.20;99.90;;;;;;6037401;23;20034;-90
2023/07/22 09:48:53;;;;;;;2.03;1.92;;;19.30;99.90;;;;;;6012849;23;20037;-92
2023/07/22 09:51:19;;;;;;;2.10;2.00;;;19.60;99.90;;;;;;6011874;23;20069;-88
2023/07/22 09:54:08;;;;;;;2.20;2.10;;;19.60;99.90;;;;;;6059971;23;20026;-89
2023/07/22 09:56:47;;;;;;;2.30;2.20;;;19.90;99.90;;;;;;6012555;23;20451;-92
2023/07/22 09:59:13;;;;;;;2.47;2.30;;;20.00;99.90;;;;;;6034814;23;20019;-86
2023/07/22 10:01:40;;;;;;;2.40;2.30;;;20.00;99.90;;;;;;6034936;23;20023;-86
2023/07/22 10:04:07;;;;;;;2.40;2.30;;;20.00;99.90;;;;;;6033767;23;20025;-85
2023/07/22 10:06:34;;;;;;;2.30;2.20;;;19.90;99.90;;;;;;6033080;23;20030;-84
2023/07/22 10:09:07;;;;;;;2.30;2.20;;;19.70;99.90;;;;;;6034203;23;20095;-89
2023/07/22 10:11:34;;;;;;;2.38;2.28;;;19.50;99.90;;;;;;6035147;23;20026;-88
2023/07/22 10:14:07;;;;;;;2.20;2.10;;;19.30;99.90;;;;;;6036336;23;20075;-91
2023/07/22 10:16:42;;;;;;;2.30;2.20;;;19.20;99.90;;;;;;6017006;23;20026;-89
2023/07/22 10:19:09;;;;;;;2.20;2.10;;;19.20;99.90;;;;;;6013219;23;20209;-87
2023/07/22 10:21:38;;;;;;;2.30;2.20;;;19.10;99.90;;;;;;6036756;23;20641;-91
2023/07/22 10:24:05;;;;;;;2.20;2.10;;;19.20;99.90;;;;;;6037758;23;20823;-89
2023/07/22 10:26:32;;;;;;;2.30;2.20;;;19.20;99.90;;;;;;6040455;23;20375;-90
2023/07/22 10:29:20;;;;;;;2.17;2.08;;;19.40;99.90;;;;;;6041477;23;20068;-93
2023/07/22 10:31:53;;;;;;;2.38;2.28;;;19.40;99.90;;;;;;6019732;23;20023;-94
2023/07/22 10:34:27;;;;;;;2.30;2.20;;;19.30;99.90;;;;;;6015016;23;20070;-94
2023/07/22 10:37:04;;;;;;;2.20;2.10;;;19.10;99.90;;;;;;6015138;23;20026;-93
2023/07/22 10:39:57;;;;;;;2.30;2.20;;;19.00;99.90;;;;;;6044577;23;20336;-93
2023/07/22 10:46:13;;;;;;;2.40;2.30;;;18.80;99.90;;;;;;6039597;23;20105;-91
2023/07/22 10:48:43;;;;;;;2.40;2.30;;;18.60;99.90;;;;;;6016871;23;20023;-90
2023/07/22 10:51:15;;;;;;;2.30;2.20;;;18.50;99.90;;;;;;6041776;23;20441;-92
2023/07/22 10:54:11;;;;;;;2.40;2.30;;;18.30;99.90;;;;;;6018042;23;20022;-94
2023/07/22 10:56:46;;;;;;;2.50;2.40;;;18.30;99.90;;;;;;6014657;23;20480;-89
2023/07/22 10:59:12;;;;;;;2.50;2.40;;;18.50;99.90;;;;;;6015896;23;20019;-92
2023/07/22 11:02:05;;;;;;;2.50;2.40;;;18.50;99.90;;;;;;6016992;23;20022;-90
2023/07/22 11:04:31;;;;;;;3.03;2.83;;;18.50;99.90;;;;;;6016916;23;20019;-90
2023/07/22 11:07:06;;;;;;;3.00;2.80;;;18.70;99.90;;;;;;6014031;23;20050;-87
2023/07/22 11:09:34;;;;;;;2.60;2.50;;;18.80;99.90;;;;;;6036169;23;20058;-88
2023/07/22 11:12:29;;;;;;;2.50;2.40;;;18.70;99.90;;;;;;6035322;23;20027;-90
2023/07/22 11:15:05;;;;;;;2.60;2.50;;;18.80;99.90;;;;;;6034852;23;20042;-84
2023/07/22 11:17:32;;;;;;;2.63;2.53;;;18.80;99.90;;;;;;6033678;23;20018;-85
2023/07/22 11:19:59;;;;;;;2.53;2.42;;;18.70;99.90;;;;;;6011625;23;20347;-86
2023/07/22 11:22:25;;;;;;;2.75;2.60;;;18.60;99.90;;;;;;6011102;23;20031;-82
2023/07/22 11:24:52;;;;;;;2.88;2.67;;;18.50;99.90;;;;;;6057853;23;20022;-85
2023/07/22 11:27:22;;;;;;;2.88;2.67;;;18.40;99.90;;;;;;6034602;23;20018;-91
2023/07/22 11:29:51;;;;;;;3.00;2.80;;;18.30;99.90;;;;;;6013146;23;20078;-87
2023/07/22 11:32:24;;;;;;;2.90;2.70;;;18.30;99.90;;;;;;6036619;23;20025;-89
2023/07/22 11:35:01;;;;;;;2.97;2.78;;;18.30;99.90;;;;;;6014427;23;20030;-92
2023/07/22 11:37:53;;;;;;;3.17;2.97;;;18.20;99.90;;;;;;6037753;23;20022;-89
2023/07/22 11:40:19;;;;;;;3.10;2.90;;;18.20;99.90;;;;;;5996052;23;20026;-88
2023/07/22 11:42:51;;;;;;;3.03;2.83;;;18.20;99.90;;;;;;6011765;23;20105;-89
2023/07/22 11:45:17;;;;;;;2.83;2.63;;;18.20;99.90;;;;;;6037215;23;20054;-89
2023/07/22 11:47:44;;;;;;;2.78;2.60;;;18.00;99.90;;;;;;6013055;23;20023;-85
2023/07/22 11:50:10;;;;;;;2.75;2.60;;;17.70;99.90;;;;;;6012312;23;20042;-89
2023/07/22 11:52:39;;;;;;;2.60;2.50;;;17.60;99.90;;;;;;6014123;23;20443;-91
2023/07/22 11:55:05;;;;;;;2.80;2.60;;;17.50;99.90;;;;;;6035589;23;20027;-91
2023/07/22 11:57:31;;;;;;;2.80;2.60;;;17.30;99.90;;;;;;6013808;23;20027;-92
2023/07/22 12:00:05;;;;;;;2.67;2.55;;;17.20;99.90;;;;;;6016005;23;20446;-94
2023/07/22 12:02:35;;;;;;;2.55;2.45;;;17.10;99.90;;;;;;6015218;23;20050;-90
2023/07/22 12:05:04;;;;;;;2.50;2.40;;;16.80;99.90;;;;;;6013085;23;20015;-86
2023/07/22 12:07:35;;;;;;;2.53;2.42;;;16.60;99.90;;;;;;6034716;23;20026;-90
2023/07/22 12:10:05;;;;;;;2.60;2.50;;;16.60;99.90;;;;;;6034841;23;20029;-85
2023/07/22 12:12:36;;;;;;;2.55;2.45;;;16.50;99.90;;;;;;6010049;23;20106;-86
2023/07/22 12:15:17;;;;;;;2.50;2.40;;;16.70;99.90;;;;;;6033035;23;20019;-87
2023/07/22 12:17:56;;;;;;;2.50;2.40;;;16.70;99.90;;;;;;6034394;23;20383;-89
2023/07/22 12:20:27;;;;;;;2.60;2.50;;;16.70;99.90;;;;;;6011514;23;20058;-87
2023/07/22 12:23:00;;;;;;;2.88;2.70;;;16.70;99.90;;;;;;6035951;23;20094;-87
2023/07/22 12:25:26;;;;;;;2.67;2.55;;;16.80;99.90;;;;;;6012280;23;20477;-86
2023/07/22 12:27:51;;;;;;;2.58;2.47;;;16.60;99.90;;;;;;6034290;23;20070;-87
2023/07/22 12:30:21;;;;;;;2.88;2.67;;;16.60;99.90;;;;;;6034237;23;20377;-86
2023/07/22 12:32:47;;;;;;;2.83;2.63;;;16.60;99.90;;;;;;6034199;23;20018;-86
2023/07/22 12:35:13;;;;;;;2.75;2.58;;;16.60;99.90;;;;;;6033622;23;20019;-87
2023/07/22 12:37:39;;;;;;;2.90;2.70;;;16.70;99.90;;;;;;6033665;23;20785;-87
2023/07/22 12:40:07;;;;;;;2.75;2.60;;;16.70;99.90;;;;;;6034519;23;20098;-87
2023/07/22 12:42:34;;;;;;;2.50;2.40;;;16.70;99.90;;;;;;6033864;23;20596;-87
2023/07/22 12:45:00;;;;;;;2.50;2.40;;;16.70;99.90;;;;;;6009173;23;20027;-88
2023/07/22 12:47:26;;;;;;;2.60;2.50;;;16.60;99.90;;;;;;6033882;23;20030;-87
2023/07/22 12:49:51;;;;;;;2.60;2.50;;;16.70;99.90;;;;;;6034503;23;20053;-87
2023/07/22 12:52:17;;;;;;;2.30;2.20;;;16.70;99.90;;;;;;6033401;23;20027;-88
2023/07/22 12:54:55;;;;;;;2.58;2.47;;;16.80;99.90;;;;;;6032104;23;20023;-89
2023/07/22 12:57:21;;;;;;;2.47;2.38;;;16.90;99.90;;;;;;6010735;23;20027;-88
2023/07/22 12:59:47;;;;;;;2.67;2.55;;;17.00;99.90;;;;;;6034091;23;20187;-90
2023/07/22 13:02:12;;;;;;;2.70;2.60;;;16.80;99.90;;;;;;6009895;23;20019;-88
2023/07/22 13:04:41;;;;;;;2.60;2.50;;;16.70;99.90;;;;;;6033731;23;20054;-90
2023/07/22 13:07:07;;;;;;;2.65;2.53;;;16.70;99.90;;;;;;6011566;23;20027;-89
2023/07/22 13:09:38;;;;;;;2.40;2.30;;;16.50;99.90;;;;;;6009360;23;20045;-86
2023/07/22 13:12:07;;;;;;;2.45;2.35;;;16.60;99.90;;;;;;6033393;23;20418;-83
2023/07/22 13:14:33;;;;;;;2.30;2.20;;;16.40;99.90;;;;;;6006769;23;20418;-85
2023/07/22 13:16:59;;;;;;;2.08;1.98;;;16.40;99.90;;;;;;6031492;23;20019;-82
2023/07/22 13:19:24;;;;;;;2.53;2.42;;;16.40;99.90;;;;;;6031375;23;20050;-81
2023/07/22 13:21:50;;;;;;;2.85;2.65;;;16.30;99.90;;;;;;6056334;23;20498;-81
2023/07/22 13:24:15;;;;;;;2.00;1.90;;;16.20;99.90;;;;;;6031031;23;20080;-82
2023/07/22 13:26:41;;;;;;;1.92;1.83;;;16.10;99.90;;;;;;6007875;23;20089;-81
2023/07/22 13:29:08;;;;;;;1.92;1.83;;;16.00;99.90;;;;;;6031237;23;20026;-83
2023/07/22 13:31:34;;;;;;;1.58;1.48;;;16.10;99.90;;;;;;6030603;23;20022;-82
2023/07/22 13:34:00;;;;;;;1.80;1.70;;;16.10;99.90;;;;;;6031017;23;20027;-81
2023/07/22 13:36:26;;;;;;;1.63;1.52;;;16.40;99.90;;;;;;6031540;23;20027;-82
2023/07/22 13:38:51;;;;;;;1.60;1.50;;;16.30;99.90;;;;;;6029772;23;20026;-83
2023/07/22 13:41:17;;;;;;;2.28;2.10;;;16.50;99.90;;;;;;6031401;23;20033;-84
2023/07/22 13:43:42;;;;;;;1.70;1.60;;;16.50;99.90;;;;;;6031070;23;20069;-83
2023/07/22 13:46:08;;;;;;;1.95;1.85;;;16.60;99.90;;;;;;6031543;23;20043;-85
2023/07/22 13:48:34;;;;;;;1.73;1.63;;;16.60;99.90;;;;;;6032094;23;20022;-85
2023/07/22 13:51:03;;;;;;;1.73;1.63;;;16.60;99.90;;;;;;6033858;23;20525;-85
2023/07/22 13:53:31;;;;;;;1.65;1.55;;;16.80;99.90;;;;;;6031283;23;20026;-86
2023/07/22 13:56:00;;;;;;;1.85;1.75;;;16.80;99.90;;;;;;6005788;23;20120;-86
2023/07/22 13:58:26;;;;;;;1.73;1.63;;;16.90;99.90;;;;;;6032396;23;20014;-86
2023/07/22 14:00:54;;;;;;;1.80;1.70;;;16.90;99.90;;;;;;6031750;23;20029;-84
2023/07/22 14:03:25;;;;;;;1.80;1.70;;;16.80;99.90;;;;;;6031338;23;20022;-86
2023/07/22 14:05:58;;;;;;;1.90;1.80;;;16.90;99.90;;;;;;6008136;23;20023;-86
2023/07/22 14:08:24;;;;;;;2.03;1.92;;;16.80;99.90;;;;;;6009186;23;20033;-85
2023/07/22 14:10:49;;;;;;;2.00;1.90;;;16.90;99.90;;;;;;6008356;23;20023;-84
2023/07/22 14:13:15;;;;;;;2.20;2.10;;;16.80;99.90;;;;;;6032416;23;20027;-84
2023/07/22 14:15:43;;;;;;;2.20;2.10;;;16.70;99.90;;;;;;6031338;23;20026;-86
2023/07/22 14:18:08;;;;;;;2.30;2.20;;;16.50;99.90;;;;;;6032011;23;20061;-87
2023/07/22 14:20:34;;;;;;;2.30;2.20;;;16.60;99.90;;;;;;6007590;23;20058;-86
2023/07/22 14:22:59;;;;;;;2.10;2.00;;;16.50;99.90;;;;;;6008623;23;20129;-84
2023/07/22 14:25:25;;;;;;;2.20;2.10;;;16.50;99.90;;;;;;6032015;23;20023;-82
2023/07/22 14:27:51;;;;;;;2.50;2.40;;;16.50;99.90;;;;;;6031938;23;20023;-82
2023/07/22 14:30:16;;;;;;;2.60;2.50;;;16.40;99.90;;;;;;6031856;23;20662;-81
2023/07/22 14:32:42;;;;;;;2.55;2.45;;;16.50;99.90;;;;;;6058018;23;20030;-82
2023/07/22 14:35:08;;;;;;;2.60;2.50;;;16.30;99.90;;;;;;6056472;23;20034;-81
2023/07/22 14:37:35;;;;;;;2.40;2.30;;;16.30;99.90;;;;;;6033229;23;20027;-83